Time,TemperatureF,DewpointF,PressureIn,WindDirection,WindDirectionDegrees,WindSpeedMPH,WindSpeedGustMPH,Humidity,HourlyPrecipIn,Conditions,Clouds,dailyrainin,SoftwareType,DateUTC
2013-07-30 00:01:00,68.0,57.0,30.06,WSW,252,0.0,-999.0,69,-99.99,,,0.00,weatherlink.com 1.10,2013-07-30 05:01:00,
2013-07-30 00:46:00,67.9,58.0,30.06,WSW,252,0.0,-999.0,70,-99.99,,,0.00,weatherlink.com 1.10,2013-07-30 05:46:00,
2013-07-30 01:16:00,67.9,57.0,30.06,WSW,252,0.0,-999.0,69,-99.99,,,0.00,weatherlink.com 1.10,2013-07-30 06:16:00,
2013-07-30 01:31:00,67.8,58.0,30.06,WSW,252,0.0,-999.0,70,-99.99,,,0.00,weatherlink.com 1.10,2013-07-30 06:31:00,
2013-07-30 02:01:00,67.7,57.0,30.05,WSW,252,0.0,-999.0,69,-99.99,,,0.00,weatherlink.com 1.10,2013-07-30 07:01:00,
2013-07-30 02:16:00,67.5,57.0,30.05,WSW,252,0.0,-999.0,70,-99.99,,,0.00,weatherlink.com 1.10,2013-07-30 07:16:00,
2013-07-30 02:46:00,66.9,58.0,30.05,WSW,252,0.0,-999.0,73,-99.99,,,0.00,weatherlink.com 1.10,2013-07-30 07:46:00,
2013-07-30 03:01:00,66.3,58.0,30.05,WSW,252,0.0,-999.0,74,-99.99,,,0.00,weatherlink.com 1.10,2013-07-30 08:01:00,
2013-07-30 03:16:00,66.1,58.0,30.05,WSW,252,0.0,-999.0,76,-99.99,,,0.00,weatherlink.com 1.10,2013-07-30 08:16:00,
2013-07-30 03:31:00,65.8,58.0,30.05,WSW,251,0.0,-999.0,77,-99.99,,,0.00,weatherlink.com 1.10,2013-07-30 08:31:00,
2013-07-30 03:46:00,65.8,59.0,30.04,WSW,251,0.0,-999.0,78,-99.99,,,0.00,weatherlink.com 1.10,2013-07-30 08:46:00,
2013-07-30 04:01:00,65.8,59.0,30.05,WSW,251,0.0,-999.0,78,-99.99,,,0.00,weatherlink.com 1.10,2013-07-30 09:01:00,
2013-07-30 04:16:00,65.5,60.0,30.05,WSW,250,1.0,-999.0,81,-99.99,,,0.00,weatherlink.com 1.10,2013-07-30 09:16:00,
2013-07-30 05:01:00,64.1,60.0,30.05,WSW,244,0.0,-999.0,87,-99.99,,,0.00,weatherlink.com 1.10,2013-07-30 10:01:00,
2013-07-30 05:16:00,64.2,60.0,30.04,WSW,244,3.0,-999.0,86,-99.99,,,0.00,weatherlink.com 1.10,2013-07-30 10:16:00,
2013-07-30 05:31:00,64.7,60.0,30.04,WSW,244,0.0,-999.0,85,-99.99,,,0.00,weatherlink.com 1.10,2013-07-30 10:31:00,
2013-07-30 05:46:00,65.0,60.0,30.03,WSW,244,0.0,-999.0,84,-99.99,,,0.00,weatherlink.com 1.10,2013-07-30 10:46:00,
2013-07-30 06:01:00,65.4,60.0,30.03,WSW,244,0.0,-999.0,83,-99.99,,,0.00,weatherlink.com 1.10,2013-07-30 11:01:00,
2013-07-30 06:16:00,65.5,60.0,30.04,WSW,244,0.0,-999.0,82,-99.99,,,0.00,weatherlink.com 1.10,2013-07-30 11:16:00,
2013-07-30 06:31:00,65.6,60.0,30.04,WSW,244,0.0,-999.0,83,-99.99,,,0.00,weatherlink.com 1.10,2013-07-30 11:31:00,
2013-07-30 06:46:00,65.7,60.0,30.03,WSW,244,0.0,-999.0,83,-99.99,,,0.00,weatherlink.com 1.10,2013-07-30 11:46:00,
2013-07-30 07:01:00,65.9,60.0,30.03,SW,234,0.0,-999.0,82,-99.99,,,0.00,weatherlink.com 1.10,2013-07-30 12:01:00,
2013-07-30 07:16:00,66.0,60.0,30.04,SW,232,1.0,-999.0,82,-99.99,,,0.00,weatherlink.com 1.10,2013-07-30 12:16:00,
2013-07-30 07:31:00,66.1,61.0,30.04,SW,232,0.0,-999.0,82,-99.99,,,0.00,weatherlink.com 1.10,2013-07-30 12:31:00,
2013-07-30 08:01:00,66.1,61.0,30.05,SW,232,0.0,-999.0,83,-99.99,,,0.00,weatherlink.com 1.10,2013-07-30 13:01:00,
2013-07-30 08:16:00,65.9,61.0,30.05,SW,232,0.0,-999.0,85,-99.99,,,0.00,weatherlink.com 1.10,2013-07-30 13:16:00,
2013-07-30 08:31:00,65.6,62.0,30.06,SW,232,0.0,-999.0,87,-99.99,,,0.00,weatherlink.com 1.10,2013-07-30 13:31:00,
2013-07-30 08:46:00,65.4,62.0,30.05,SW,232,0.0,-999.0,89,-99.99,,,0.00,weatherlink.com 1.10,2013-07-30 13:46:00,
2013-07-30 09:01:00,65.2,62.0,30.05,SW,232,0.0,-999.0,90,-99.99,,,0.00,weatherlink.com 1.10,2013-07-30 14:01:00,
2013-07-30 09:16:00,65.2,63.0,30.05,SW,232,0.0,-999.0,91,-99.99,,,0.01,weatherlink.com 1.10,2013-07-30 14:16:00,
2013-07-30 09:31:00,65.2,63.0,30.05,SW,232,0.0,-999.0,92,-99.99,,,0.03,weatherlink.com 1.10,2013-07-30 14:31:00,
2013-07-30 09:46:00,65.2,63.0,30.05,SW,232,0.0,-999.0,93,-99.99,,,0.04,weatherlink.com 1.10,2013-07-30 14:46:00,
2013-07-30 10:01:00,65.3,63.0,30.05,SW,232,0.0,-999.0,93,-99.99,,,0.06,weatherlink.com 1.10,2013-07-30 15:01:00,
2013-07-30 10:16:00,65.1,63.0,30.05,SW,232,0.0,-999.0,93,-99.99,,,0.09,weatherlink.com 1.10,2013-07-30 15:16:00,
2013-07-30 10:31:00,65.0,63.0,30.05,SW,232,0.0,-999.0,94,-99.99,,,0.15,weatherlink.com 1.10,2013-07-30 15:31:00,
2013-07-30 11:01:00,65.2,64.0,30.04,SW,232,0.0,-999.0,95,-99.99,,,0.18,weatherlink.com 1.10,2013-07-30 16:01:00,
2013-07-30 11:16:00,65.4,64.0,30.02,SW,232,0.0,-999.0,95,-99.99,,,0.18,weatherlink.com 1.10,2013-07-30 16:16:00,
2013-07-30 11:31:00,65.4,64.0,30.02,SW,232,0.0,-999.0,95,-99.99,,,0.19,weatherlink.com 1.10,2013-07-30 16:31:00,
2013-07-30 11:46:00,65.6,64.0,30.02,SW,230,2.0,-999.0,95,-99.99,,,0.20,weatherlink.com 1.10,2013-07-30 16:46:00,
2013-07-30 12:01:00,65.8,64.0,30.01,SW,230,0.0,-999.0,95,-99.99,,,0.21,weatherlink.com 1.10,2013-07-30 17:01:00,
2013-07-30 12:16:00,65.8,64.0,30.01,SW,226,0.0,-999.0,95,-99.99,,,0.22,weatherlink.com 1.10,2013-07-30 17:16:00,
2013-07-30 12:31:00,65.8,64.0,30.00,SW,225,0.0,-999.0,95,-99.99,,,0.22,weatherlink.com 1.10,2013-07-30 17:31:00,
2013-07-30 12:46:00,66.0,65.0,30.00,SSW,213,0.0,-999.0,95,-99.99,,,0.23,weatherlink.com 1.10,2013-07-30 17:46:00,
2013-07-30 13:01:00,65.7,64.0,29.99,SSW,213,2.0,-999.0,95,-99.99,,,0.24,weatherlink.com 1.10,2013-07-30 18:01:00,
2013-07-30 13:16:00,65.8,64.0,29.99,SSW,211,0.0,-999.0,95,-99.99,,,0.24,weatherlink.com 1.10,2013-07-30 18:16:00,
2013-07-30 13:31:00,65.9,65.0,29.98,SSW,207,0.0,-999.0,95,-99.99,,,0.24,weatherlink.com 1.10,2013-07-30 18:31:00,
2013-07-30 13:46:00,66.6,65.0,29.97,SSW,203,1.0,-999.0,95,-99.99,,,0.24,weatherlink.com 1.10,2013-07-30 18:46:00,
2013-07-30 14:01:00,67.0,66.0,29.97,SSW,201,0.0,-999.0,95,-99.99,,,0.24,weatherlink.com 1.10,2013-07-30 19:01:00,
2013-07-30 14:16:00,67.0,66.0,29.98,SSW,199,0.0,-999.0,95,-99.99,,,0.24,weatherlink.com 1.10,2013-07-30 19:16:00,
2013-07-30 14:31:00,67.0,66.0,29.98,SSW,199,5.0,-999.0,95,-99.99,,,0.24,weatherlink.com 1.10,2013-07-30 19:31:00,
2013-07-30 14:46:00,67.0,66.0,29.97,SSW,199,0.0,-999.0,95,-99.99,,,0.24,weatherlink.com 1.10,2013-07-30 19:46:00,
2013-07-30 15:16:00,67.1,66.0,29.96,South,190,0.0,-999.0,95,-99.99,,,0.26,weatherlink.com 1.10,2013-07-30 20:16:00,
2013-07-30 15:31:00,67.2,66.0,29.96,South,178,0.0,-999.0,96,-99.99,,,0.27,weatherlink.com 1.10,2013-07-30 20:31:00,
2013-07-30 15:46:00,67.1,66.0,29.96,South,177,0.0,-999.0,96,-99.99,,,0.27,weatherlink.com 1.10,2013-07-30 20:46:00,
2013-07-30 16:01:00,67.1,66.0,29.96,South,188,0.0,-999.0,96,-99.99,,,0.28,weatherlink.com 1.10,2013-07-30 21:01:00,
2013-07-30 16:16:00,67.3,66.0,29.95,South,185,0.0,-999.0,96,-99.99,,,0.28,weatherlink.com 1.10,2013-07-30 21:16:00,
2013-07-30 16:31:00,67.2,66.0,29.96,SSE,159,0.0,-999.0,96,-99.99,,,0.29,weatherlink.com 1.10,2013-07-30 21:31:00,
2013-07-30 16:46:00,67.3,66.0,29.95,South,173,0.0,-999.0,96,-99.99,,,0.29,weatherlink.com 1.10,2013-07-30 21:46:00,
2013-07-30 17:01:00,67.4,66.0,29.95,South,176,0.0,-999.0,96,-99.99,,,0.30,weatherlink.com 1.10,2013-07-30 22:01:00,
2013-07-30 17:16:00,67.5,66.0,29.95,South,182,3.0,-999.0,96,-99.99,,,0.30,weatherlink.com 1.10,2013-07-30 22:16:00,
2013-07-30 17:31:00,67.6,67.0,29.95,South,183,4.0,-999.0,96,-99.99,,,0.30,weatherlink.com 1.10,2013-07-30 22:31:00,
2013-07-30 17:46:00,67.5,66.0,29.95,South,184,0.0,-999.0,96,-99.99,,,0.30,weatherlink.com 1.10,2013-07-30 22:46:00,
2013-07-30 18:01:00,67.4,66.0,29.95,South,190,0.0,-999.0,96,-99.99,,,0.31,weatherlink.com 1.10,2013-07-30 23:01:00,
2013-07-30 18:16:00,67.5,66.0,29.95,South,191,0.0,-999.0,96,-99.99,,,0.31,weatherlink.com 1.10,2013-07-30 23:16:00,
2013-07-30 18:31:00,67.6,67.0,29.95,South,191,1.0,-999.0,96,-99.99,,,0.31,weatherlink.com 1.10,2013-07-30 23:31:00,
2013-07-30 18:46:00,67.7,67.0,29.95,South,191,0.0,-999.0,96,-99.99,,,0.31,weatherlink.com 1.10,2013-07-30 23:46:00,
2013-07-30 19:01:00,67.7,67.0,29.95,South,191,0.0,-999.0,96,-99.99,,,0.31,weatherlink.com 1.10,2013-07-31 00:01:00,
2013-07-30 19:16:00,67.8,67.0,29.95,South,191,0.0,-999.0,96,-99.99,,,0.32,weatherlink.com 1.10,2013-07-31 00:16:00,
2013-07-30 19:31:00,67.8,67.0,29.95,South,191,0.0,-999.0,96,-99.99,,,0.32,weatherlink.com 1.10,2013-07-31 00:31:00,
2013-07-30 19:46:00,67.8,67.0,29.95,South,191,0.0,-999.0,96,-99.99,,,0.32,weatherlink.com 1.10,2013-07-31 00:46:00,
2013-07-30 20:01:00,67.7,67.0,29.94,South,191,0.0,-999.0,96,-99.99,,,0.32,weatherlink.com 1.10,2013-07-31 01:01:00,
2013-07-30 20:46:00,67.4,66.0,29.95,South,191,0.0,-999.0,96,-99.99,,,0.33,weatherlink.com 1.10,2013-07-31 01:46:00,
2013-07-30 21:16:00,67.5,66.0,29.96,South,191,0.0,-999.0,96,-99.99,,,0.33,weatherlink.com 1.10,2013-07-31 02:16:00,
2013-07-30 21:31:00,67.4,66.0,29.96,South,190,3.0,-999.0,96,-99.99,,,0.33,weatherlink.com 1.10,2013-07-31 02:31:00,
2013-07-30 21:46:00,67.4,66.0,29.96,South,190,3.0,-999.0,96,-99.99,,,0.33,weatherlink.com 1.10,2013-07-31 02:46:00,
2013-07-30 22:01:00,67.4,66.0,29.96,South,190,0.0,-999.0,96,-99.99,,,0.33,weatherlink.com 1.10,2013-07-31 03:01:00,
2013-07-30 22:16:00,67.4,67.0,29.95,South,190,0.0,-999.0,97,-99.99,,,0.33,weatherlink.com 1.10,2013-07-31 03:16:00,
2013-07-30 22:31:00,67.3,67.0,29.95,South,190,0.0,-999.0,97,-99.99,,,0.33,weatherlink.com 1.10,2013-07-31 03:31:00,
2013-07-30 22:46:00,67.2,66.0,29.96,South,190,2.0,-999.0,97,-99.99,,,0.33,weatherlink.com 1.10,2013-07-31 03:46:00,
2013-07-30 23:01:00,67.2,66.0,29.96,South,190,0.0,-999.0,97,-99.99,,,0.33,weatherlink.com 1.10,2013-07-31 04:01:00,
2013-07-30 23:16:00,67.1,66.0,29.96,South,190,0.0,-999.0,97,-99.99,,,0.34,weatherlink.com 1.10,2013-07-31 04:16:00,
2013-07-30 23:31:00,66.9,66.0,29.96,South,190,0.0,-999.0,97,-99.99,,,0.34,weatherlink.com 1.10,2013-07-31 04:31:00,
2013-07-30 23:46:00,66.9,66.0,29.95,South,190,0.0,-999.0,97,-99.99,,,0.34,weatherlink.com 1.10,2013-07-31 04:46:00,